BGL weather

Baglung Airport
Baglung, Dhawalagiri, Nepal

Public forecast

Using degrees Celsius for public forecast. Weather courtesy of forecast.io.

METAR (pilot weather report)

Closest report is Gorakhpur Airport, 89.2 nm (165.2 km) S. Retrieved 2019/07/15 19:30 UTC (24 minutes ago):

VEGK 151930Z VRB01KT 6000 RERA SCT030 BKN100 26/25 Q0999 NOSIG

TAF (pilot weather forecast)

Forecast is more than 6 hours old.

Closest forecast is Gorakhpur Airport, 89.2 nm (165.2 km) S. Retrieved 2019/07/15 12:30 UTC (7 hours ago):

TAF VEGK 150930Z 1512/1524 28010KT 6000 FEW030TCU/CB SCT040 SCT250 TEMPO 1516/1518 4000 TSRA SCT020 FEW030TCU/CB BKN080